createdAt,value
2022-11-16T11:24:45.489Z,62.27
2022-11-16T11:24:52.168Z,62.38
2022-11-16T11:25:02.178Z,62.07
2022-11-16T11:25:12.160Z,61.87
2022-11-16T11:25:22.155Z,62.18
2022-11-16T11:25:32.159Z,62.38
2022-11-16T11:25:42.155Z,63.18
2022-11-16T11:25:52.143Z,62.68
2022-11-16T11:26:02.141Z,65.19
2022-11-16T11:26:12.139Z,65.56
2022-11-16T11:26:22.142Z,64.26
2022-11-16T11:26:36.601Z,64.36
2022-11-16T11:26:42.122Z,64.16
2022-11-16T11:26:52.117Z,63.35
2022-11-16T11:27:02.114Z,63.35
2022-11-16T11:27:12.112Z,65.13
2022-11-16T11:27:22.093Z,62.32
2022-11-16T11:27:32.092Z,60.91
2022-11-16T11:27:42.079Z,61.49
2022-11-16T11:27:52.081Z,62.08
2022-11-16T11:28:02.070Z,62.29
2022-11-16T11:28:12.063Z,60.68
2022-11-16T11:29:12.742Z,60.51
2022-11-16T11:30:26.735Z,59.08
2022-11-16T11:43:55.833Z,56.33
2022-11-16T11:48:02.779Z,55.40
2022-11-16T11:50:50.346Z,57.20
2022-11-16T11:53:43.549Z,56.13
2022-11-16T11:53:54.590Z,55.73
2022-11-16T11:54:04.672Z,55.52
2022-11-16T11:54:14.732Z,55.22
2022-11-16T11:54:24.795Z,55.13
2022-11-16T11:54:34.852Z,54.93
2022-11-16T11:54:46.243Z,55.43
2022-11-16T11:54:54.955Z,55.93
2022-11-16T11:55:05.012Z,55.43
2022-11-16T11:55:15.066Z,55.63
2022-11-16T11:55:25.132Z,55.05
2022-11-16T11:55:35.201Z,55.75
2022-11-16T11:55:45.218Z,56.52
2022-11-16T11:55:55.290Z,56.83
